createdAt,value
2018-12-07T00:02:36.260Z,15.63
2018-12-07T00:07:40.825Z,15.50
2018-12-07T00:12:45.452Z,14.03
2018-12-07T00:17:49.965Z,13.50
2018-12-07T00:22:54.533Z,15.10
2018-12-07T00:27:59.034Z,13.00
2018-12-07T00:33:03.548Z,13.10
2018-12-07T00:38:08.051Z,13.47
2018-12-07T00:43:12.570Z,13.83
2018-12-07T00:48:17.074Z,13.27
2018-12-07T00:53:21.574Z,12.40
2018-12-07T00:58:26.083Z,13.90
2018-12-07T01:03:30.581Z,13.23
2018-12-07T01:08:35.145Z,11.97
2018-12-07T01:13:39.699Z,12.17
2018-12-07T01:18:44.194Z,11.90
2018-12-07T01:23:48.708Z,11.70
2018-12-07T01:28:53.316Z,12.13
2018-12-07T01:33:57.818Z,11.73
2018-12-07T01:39:02.322Z,11.20
2018-12-07T01:44:06.834Z,11.17
2018-12-07T01:49:11.334Z,11.03
2018-12-07T01:54:15.852Z,11.17
2018-12-07T01:59:20.354Z,10.70
2018-12-07T02:04:24.869Z,10.30
2018-12-07T02:09:29.370Z,10.37
2018-12-07T02:14:33.866Z,10.10
2018-12-07T02:19:38.402Z,10.03
2018-12-07T02:24:42.895Z,10.50
2018-12-07T02:29:47.402Z,10.63
2018-12-07T02:34:52.013Z,10.50
2018-12-07T02:39:56.534Z,10.03
2018-12-07T02:45:01.075Z,10.93
2018-12-07T02:50:05.998Z,9.87
2018-12-07T02:55:10.496Z,10.37
2018-12-07T03:00:15.005Z,10.20
2018-12-07T03:05:19.542Z,10.17
2018-12-07T03:10:24.077Z,10.53
2018-12-07T03:15:28.589Z,10.40
2018-12-07T03:20:33.101Z,10.73
2018-12-07T03:25:37.618Z,10.93
2018-12-07T03:30:42.129Z,9.67
2018-12-07T03:35:46.621Z,9.67
2018-12-07T03:40:51.156Z,10.40
2018-12-07T03:45:55.671Z,11.53
2018-12-07T03:51:00.185Z,11.17
2018-12-07T03:56:04.916Z,10.77
2018-12-07T04:01:09.425Z,10.67
2018-12-07T04:06:13.918Z,11.80
2018-12-07T04:11:18.466Z,10.87
2018-12-07T04:16:22.997Z,11.00
2018-12-07T04:21:27.496Z,11.07
2018-12-07T04:26:31.998Z,11.00
2018-12-07T04:31:36.530Z,10.37
2018-12-07T04:36:41.038Z,11.53
2018-12-07T04:41:45.568Z,11.97
2018-12-07T04:46:50.067Z,11.13
2018-12-07T04:51:54.570Z,12.27
2018-12-07T04:56:59.141Z,11.23
2018-12-07T05:02:03.668Z,12.07
2018-12-07T05:07:08.182Z,10.87
2018-12-07T05:12:12.705Z,12.37
2018-12-07T05:17:17.199Z,13.00
2018-12-07T05:22:21.718Z,11.83
2018-12-07T05:27:26.212Z,12.63
2018-12-07T05:32:30.722Z,12.17
2018-12-07T05:37:35.249Z,13.00
2018-12-07T05:42:39.737Z,13.43
2018-12-07T05:47:44.348Z,13.13
2018-12-07T05:52:48.922Z,14.07
2018-12-07T05:57:53.432Z,13.67
2018-12-07T06:02:57.942Z,12.93
2018-12-07T06:08:02.495Z,13.23
2018-12-07T06:13:07.058Z,14.27
2018-12-07T06:18:11.575Z,13.47
2018-12-07T06:23:16.119Z,14.70
2018-12-07T06:28:20.629Z,12.40
2018-12-07T06:33:25.147Z,12.50
2018-12-07T06:38:29.661Z,11.63
2018-12-07T06:43:34.181Z,11.90
2018-12-07T06:48:38.686Z,10.97
2018-12-07T06:53:43.181Z,11.23
2018-12-07T06:58:47.719Z,11.03
2018-12-07T07:03:52.230Z,9.97
2018-12-07T07:08:56.742Z,10.50
2018-12-07T07:14:01.312Z,9.40
2018-12-07T07:19:05.824Z,10.40
2018-12-07T07:24:10.367Z,9.60
2018-12-07T07:29:14.955Z,10.40
2018-12-07T07:34:19.475Z,10.60
2018-12-07T07:39:23.998Z,9.80
2018-12-07T07:44:28.502Z,11.10
2018-12-07T07:49:33.014Z,10.80
2018-12-07T07:54:37.528Z,10.90
2018-12-07T07:59:42.043Z,9.63
2018-12-07T08:04:46.547Z,10.40
2018-12-07T08:09:51.075Z,9.67
2018-12-07T08:14:55.591Z,10.30
2018-12-07T08:20:00.122Z,9.97
2018-12-07T08:25:05.177Z,9.93
2018-12-07T08:30:12.190Z,9.17
2018-12-07T08:35:16.856Z,8.93
2018-12-07T08:40:21.418Z,9.97
2018-12-07T08:45:25.934Z,8.93
2018-12-07T08:50:30.874Z,9.50
2018-12-07T08:55:35.529Z,8.63
2018-12-07T09:00:40.137Z,8.00
2018-12-07T09:05:44.670Z,8.40
2018-12-07T09:10:49.181Z,7.83
2018-12-07T09:15:53.709Z,7.20
2018-12-07T09:20:58.214Z,7.77
2018-12-07T09:26:02.790Z,7.37
2018-12-07T09:31:07.301Z,7.57
2018-12-07T09:36:11.889Z,6.57
2018-12-07T09:41:16.419Z,6.17
2018-12-07T09:46:21.021Z,5.87
2018-12-07T09:51:25.577Z,7.03
2018-12-07T09:56:30.106Z,6.77
2018-12-07T10:01:34.630Z,6.07
2018-12-07T10:06:39.140Z,5.57
2018-12-07T10:11:43.694Z,6.23
2018-12-07T10:16:48.316Z,5.57
2018-12-07T10:21:52.878Z,5.67
2018-12-07T10:27:00.751Z,5.87
2018-12-07T10:32:05.290Z,6.37
2018-12-07T10:37:09.822Z,5.43
2018-12-07T10:42:14.338Z,6.00
2018-12-07T10:47:18.862Z,5.87
2018-12-07T10:52:23.366Z,5.63
2018-12-07T10:57:27.973Z,6.20
2018-12-07T11:02:38.198Z,5.23
2018-12-07T11:08:50.186Z,5.77
2018-12-07T11:13:59.822Z,5.17
2018-12-07T11:19:09.597Z,4.63
2018-12-07T11:24:19.230Z,4.40
2018-12-07T11:29:29.170Z,4.40
2018-12-07T11:34:37.305Z,4.10
2018-12-07T11:39:41.824Z,3.77
2018-12-07T11:44:46.370Z,3.57
2018-12-07T11:49:50.898Z,3.10
2018-12-07T11:54:55.560Z,3.30
2018-12-07T12:00:00.072Z,2.63
2018-12-07T12:05:05.170Z,3.07
2018-12-07T12:10:09.789Z,2.27
2018-12-07T12:15:14.469Z,2.60
2018-12-07T12:20:19.047Z,2.40
2018-12-07T12:25:23.588Z,2.97
2018-12-07T12:30:28.151Z,2.80
2018-12-07T12:35:32.675Z,2.47
2018-12-07T12:40:37.242Z,2.63
2018-12-07T12:45:41.845Z,2.50
2018-12-07T12:50:46.379Z,2.73
2018-12-07T12:55:50.932Z,2.60
2018-12-07T13:00:55.485Z,2.40
2018-12-07T13:05:59.987Z,2.03
2018-12-07T13:11:04.525Z,2.67
2018-12-07T13:16:09.118Z,2.43
2018-12-07T13:21:13.637Z,2.30
2018-12-07T13:26:18.158Z,2.20
2018-12-07T13:31:22.723Z,2.67
2018-12-07T13:36:27.350Z,2.13
2018-12-07T13:41:32.009Z,2.73
2018-12-07T13:46:36.594Z,2.60
2018-12-07T13:51:41.191Z,2.87
2018-12-07T13:56:45.882Z,2.93
2018-12-07T14:01:50.326Z,2.80
2018-12-07T14:06:54.836Z,3.23
2018-12-07T14:11:59.435Z,2.63
2018-12-07T14:17:04.164Z,3.17
2018-12-07T14:22:08.689Z,2.90
2018-12-07T14:27:13.264Z,2.97
2018-12-07T14:32:17.799Z,3.40
2018-12-07T14:37:22.306Z,3.10
2018-12-07T14:42:26.931Z,3.40
2018-12-07T14:47:31.684Z,2.93
2018-12-07T14:52:36.274Z,3.37
2018-12-07T14:57:40.991Z,3.67
2018-12-07T15:02:45.584Z,4.60
2018-12-07T15:07:50.269Z,4.63
2018-12-07T15:12:55.280Z,5.13
2018-12-07T15:17:59.842Z,5.07
2018-12-07T15:23:04.495Z,4.73
2018-12-07T15:28:09.429Z,4.57
2018-12-07T15:33:14.009Z,4.50
2018-12-07T15:38:18.717Z,4.60
2018-12-07T15:43:23.426Z,4.27
2018-12-07T15:48:28.009Z,4.17
2018-12-07T15:53:32.864Z,4.10
2018-12-07T15:58:37.529Z,4.07
2018-12-07T16:03:42.257Z,4.37
2018-12-07T16:08:46.901Z,3.80
2018-12-07T16:13:51.397Z,4.87
2018-12-07T16:18:56.168Z,3.90
2018-12-07T16:24:00.703Z,3.63
2018-12-07T16:29:06.083Z,4.30
2018-12-07T16:34:09.977Z,4.40
2018-12-07T16:39:14.511Z,4.37
2018-12-07T16:44:19.113Z,4.33
2018-12-07T16:49:23.604Z,4.53
2018-12-07T16:54:28.310Z,4.30
2018-12-07T16:59:32.959Z,4.60
2018-12-07T17:04:37.510Z,5.50
2018-12-07T17:09:42.292Z,5.67
2018-12-07T17:14:46.842Z,5.87
2018-12-07T17:19:51.425Z,5.90
2018-12-07T17:24:56.091Z,5.23
2018-12-07T17:30:00.506Z,5.77
2018-12-07T17:35:05.094Z,6.00
2018-12-07T17:40:09.914Z,6.20
2018-12-07T17:45:14.567Z,5.30
2018-12-07T17:50:19.055Z,5.07
2018-12-07T17:55:23.578Z,5.17
2018-12-07T18:00:28.175Z,4.73
2018-12-07T18:05:32.726Z,4.50
2018-12-07T18:10:37.318Z,4.90
2018-12-07T18:15:42.008Z,4.67
2018-12-07T18:20:46.995Z,4.83
2018-12-07T18:25:51.612Z,4.97
2018-12-07T18:30:57.022Z,5.63
2018-12-07T18:36:01.596Z,5.53
2018-12-07T18:41:06.199Z,5.23
2018-12-07T18:46:11.076Z,5.17
2018-12-07T18:51:15.562Z,4.70
2018-12-07T18:56:20.330Z,4.57
2018-12-07T19:01:25.217Z,4.27
2018-12-07T19:06:29.891Z,4.20
2018-12-07T19:11:34.951Z,4.13
2018-12-07T19:16:39.611Z,4.40
2018-12-07T19:21:44.236Z,4.20
2018-12-07T19:26:49.119Z,4.10
2018-12-07T19:31:53.781Z,3.63
2018-12-07T19:36:58.424Z,3.87
2018-12-07T19:42:03.192Z,3.50
2018-12-07T19:47:08.168Z,3.77
2018-12-07T19:52:13.980Z,3.50
2018-12-07T19:57:20.172Z,3.13
2018-12-07T20:02:23.277Z,3.30
2018-12-07T20:07:28.193Z,3.77
2018-12-07T20:12:32.760Z,3.40
2018-12-07T20:17:37.320Z,3.47
2018-12-07T20:22:42.128Z,2.90
2018-12-07T20:27:46.742Z,3.40
2018-12-07T20:32:51.576Z,3.57
2018-12-07T20:37:56.159Z,3.40
2018-12-07T20:43:00.732Z,3.97
2018-12-07T20:48:05.619Z,3.07
2018-12-07T20:53:10.068Z,3.73
2018-12-07T20:58:14.865Z,2.87
2018-12-07T21:03:19.390Z,3.00
2018-12-07T21:08:52.843Z,3.00
2018-12-07T21:14:26.064Z,2.67
2018-12-07T21:19:30.527Z,2.50
2018-12-07T21:24:35.236Z,2.40
2018-12-07T21:29:39.847Z,2.60
2018-12-07T21:35:07.811Z,2.63
2018-12-07T21:40:31.460Z,2.60
2018-12-07T21:45:35.985Z,2.60
2018-12-07T21:50:41.450Z,2.40
2018-12-07T21:55:46.185Z,2.30
2018-12-07T22:00:50.811Z,2.17
2018-12-07T22:05:55.227Z,2.13
2018-12-07T22:10:59.927Z,2.10
2018-12-07T22:16:04.556Z,2.33
2018-12-07T22:21:09.226Z,1.90
2018-12-07T22:26:13.670Z,1.70
2018-12-07T22:31:18.353Z,1.60
2018-12-07T22:36:23.033Z,1.53
2018-12-07T22:41:27.966Z,1.47
2018-12-07T22:46:32.480Z,1.70
2018-12-07T22:51:37.202Z,1.50
2018-12-07T22:56:41.753Z,1.30
2018-12-07T23:01:46.410Z,1.30
2018-12-07T23:06:51.066Z,1.40
2018-12-07T23:11:55.682Z,1.20
2018-12-07T23:17:00.213Z,1.07
2018-12-07T23:22:04.724Z,1.10
2018-12-07T23:27:09.255Z,1.30
2018-12-07T23:32:13.754Z,1.00
2018-12-07T23:37:18.257Z,0.90
2018-12-07T23:42:24.805Z,1.00
2018-12-07T23:47:29.313Z,0.93
2018-12-07T23:52:33.831Z,1.40
2018-12-07T23:57:38.357Z,1.00
